sensor_id;sensor_type;location;lat;lon;timestamp;P1;durP1;ratioP1;P2;durP2;ratioP2
77775;SDS011;73554;43.328;6.668;2023-11-21T00:02:12;3.90;;;1.10;;
77775;SDS011;73554;43.328;6.668;2023-11-21T00:04:37;3.50;;;1.00;;
77775;SDS011;73554;43.328;6.668;2023-11-21T00:07:03;3.30;;;1.10;;
77775;SDS011;73554;43.328;6.668;2023-11-21T00:09:29;3.70;;;1.00;;
77775;SDS011;73554;43.328;6.668;2023-11-21T00:11:54;6.07;;;1.10;;
77775;SDS011;73554;43.328;6.668;2023-11-21T00:14:19;3.30;;;0.90;;
77775;SDS011;73554;43.328;6.668;2023-11-21T00:16:45;4.00;;;1.00;;
77775;SDS011;73554;43.328;6.668;2023-11-21T00:19:10;2.92;;;0.95;;
77775;SDS011;73554;43.328;6.668;2023-11-21T00:21:36;2.63;;;1.00;;
77775;SDS011;73554;43.328;6.668;2023-11-21T00:24:02;4.15;;;1.10;;
77775;SDS011;73554;43.328;6.668;2023-11-21T00:26:28;4.03;;;1.10;;
77775;SDS011;73554;43.328;6.668;2023-11-21T00:28:53;3.78;;;0.90;;
77775;SDS011;73554;43.328;6.668;2023-11-21T00:31:19;3.88;;;1.02;;
77775;SDS011;73554;43.328;6.668;2023-11-21T00:33:44;5.03;;;1.27;;
77775;SDS011;73554;43.328;6.668;2023-11-21T00:36:10;3.03;;;1.13;;
77775;SDS011;73554;43.328;6.668;2023-11-21T00:38:35;4.07;;;1.40;;
77775;SDS011;73554;43.328;6.668;2023-11-21T00:43:27;3.38;;;1.27;;
77775;SDS011;73554;43.328;6.668;2023-11-21T00:45:53;4.20;;;1.27;;
77775;SDS011;73554;43.328;6.668;2023-11-21T00:48:18;3.55;;;1.50;;
77775;SDS011;73554;43.328;6.668;2023-11-21T00:50:44;4.10;;;1.85;;
77775;SDS011;73554;43.328;6.668;2023-11-21T00:53:09;3.63;;;1.40;;
77775;SDS011;73554;43.328;6.668;2023-11-21T00:58:01;4.32;;;1.60;;
77775;SDS011;73554;43.328;6.668;2023-11-21T01:00:29;5.65;;;1.75;;
77775;SDS011;73554;43.328;6.668;2023-11-21T01:02:54;6.07;;;1.80;;
77775;SDS011;73554;43.328;6.668;2023-11-21T01:05:20;5.57;;;1.75;;
77775;SDS011;73554;43.328;6.668;2023-11-21T01:07:45;4.32;;;1.35;;
77775;SDS011;73554;43.328;6.668;2023-11-21T01:10:11;3.47;;;1.30;;
77775;SDS011;73554;43.328;6.668;2023-11-21T01:12:37;5.13;;;1.98;;
77775;SDS011;73554;43.328;6.668;2023-11-21T01:15:03;5.40;;;1.58;;
77775;SDS011;73554;43.328;6.668;2023-11-21T01:17:32;4.72;;;1.73;;
77775;SDS011;73554;43.328;6.668;2023-11-21T01:19:59;4.97;;;1.42;;
77775;SDS011;73554;43.328;6.668;2023-11-21T01:22:25;4.38;;;2.03;;
77775;SDS011;73554;43.328;6.668;2023-11-21T01:24:52;4.22;;;1.60;;
77775;SDS011;73554;43.328;6.668;2023-11-21T01:27:18;4.25;;;1.52;;
77775;SDS011;73554;43.328;6.668;2023-11-21T01:29:44;5.15;;;1.50;;
77775;SDS011;73554;43.328;6.668;2023-11-21T01:32:09;4.60;;;1.75;;
77775;SDS011;73554;43.328;6.668;2023-11-21T01:34:35;4.13;;;1.60;;
77775;SDS011;73554;43.328;6.668;2023-11-21T01:37:00;5.95;;;2.00;;
77775;SDS011;73554;43.328;6.668;2023-11-21T01:39:29;4.47;;;1.30;;
77775;SDS011;73554;43.328;6.668;2023-11-21T01:41:55;6.13;;;2.05;;
77775;SDS011;73554;43.328;6.668;2023-11-21T01:44:20;3.65;;;1.60;;
77775;SDS011;73554;43.328;6.668;2023-11-21T01:46:46;4.85;;;1.40;;
77775;SDS011;73554;43.328;6.668;2023-11-21T01:49:12;4.57;;;1.58;;
77775;SDS011;73554;43.328;6.668;2023-11-21T01:51:41;4.95;;;1.92;;
77775;SDS011;73554;43.328;6.668;2023-11-21T01:54:08;6.18;;;2.15;;
77775;SDS011;73554;43.328;6.668;2023-11-21T01:56:34;3.83;;;1.50;;
77775;SDS011;73554;43.328;6.668;2023-11-21T01:59:00;4.55;;;1.65;;
77775;SDS011;73554;43.328;6.668;2023-11-21T02:01:26;5.47;;;1.88;;
77775;SDS011;73554;43.328;6.668;2023-11-21T02:03:51;4.43;;;2.00;;
77775;SDS011;73554;43.328;6.668;2023-11-21T02:06:17;5.93;;;2.05;;
77775;SDS011;73554;43.328;6.668;2023-11-21T02:08:43;5.80;;;1.75;;
77775;SDS011;73554;43.328;6.668;2023-11-21T02:11:10;5.03;;;1.70;;
77775;SDS011;73554;43.328;6.668;2023-11-21T02:13:38;5.07;;;2.15;;
77775;SDS011;73554;43.328;6.668;2023-11-21T02:16:08;5.82;;;1.90;;
77775;SDS011;73554;43.328;6.668;2023-11-21T02:18:35;6.90;;;2.08;;
77775;SDS011;73554;43.328;6.668;2023-11-21T02:21:01;4.60;;;1.90;;
77775;SDS011;73554;43.328;6.668;2023-11-21T02:23:29;5.38;;;2.00;;
77775;SDS011;73554;43.328;6.668;2023-11-21T02:25:55;4.32;;;1.90;;
77775;SDS011;73554;43.328;6.668;2023-11-21T02:28:20;4.70;;;1.80;;
77775;SDS011;73554;43.328;6.668;2023-11-21T02:30:50;6.38;;;1.90;;
77775;SDS011;73554;43.328;6.668;2023-11-21T02:33:20;3.58;;;1.58;;
77775;SDS011;73554;43.328;6.668;2023-11-21T02:35:46;5.47;;;1.83;;
77775;SDS011;73554;43.328;6.668;2023-11-21T02:38:12;5.88;;;1.70;;
77775;SDS011;73554;43.328;6.668;2023-11-21T02:40:37;6.47;;;1.90;;
77775;SDS011;73554;43.328;6.668;2023-11-21T02:43:02;5.50;;;2.33;;
77775;SDS011;73554;43.328;6.668;2023-11-21T02:45:30;9.80;;;2.25;;
77775;SDS011;73554;43.328;6.668;2023-11-21T02:47:56;5.07;;;2.10;;
77775;SDS011;73554;43.328;6.668;2023-11-21T02:50:22;4.25;;;1.80;;
77775;SDS011;73554;43.328;6.668;2023-11-21T02:52:47;4.63;;;1.70;;
77775;SDS011;73554;43.328;6.668;2023-11-21T02:55:13;6.57;;;1.92;;
77775;SDS011;73554;43.328;6.668;2023-11-21T02:57:38;4.22;;;1.73;;
77775;SDS011;73554;43.328;6.668;2023-11-21T03:00:04;5.18;;;2.47;;
77775;SDS011;73554;43.328;6.668;2023-11-21T03:02:32;3.72;;;1.77;;
77775;SDS011;73554;43.328;6.668;2023-11-21T03:04:58;3.83;;;1.70;;
77775;SDS011;73554;43.328;6.668;2023-11-21T03:07:24;4.90;;;1.83;;
77775;SDS011;73554;43.328;6.668;2023-11-21T03:09:50;6.80;;;2.13;;
77775;SDS011;73554;43.328;6.668;2023-11-21T03:12:15;4.85;;;1.90;;
77775;SDS011;73554;43.328;6.668;2023-11-21T03:14:41;7.53;;;1.95;;
77775;SDS011;73554;43.328;6.668;2023-11-21T03:17:06;4.47;;;2.00;;
77775;SDS011;73554;43.328;6.668;2023-11-21T03:19:32;4.68;;;1.90;;
77775;SDS011;73554;43.328;6.668;2023-11-21T03:21:57;5.43;;;1.83;;
77775;SDS011;73554;43.328;6.668;2023-11-21T03:24:23;5.32;;;2.03;;
77775;SDS011;73554;43.328;6.668;2023-11-21T03:26:50;5.13;;;1.60;;
77775;SDS011;73554;43.328;6.668;2023-11-21T03:29:16;5.30;;;1.70;;
77775;SDS011;73554;43.328;6.668;2023-11-21T03:31:41;4.50;;;1.75;;
77775;SDS011;73554;43.328;6.668;2023-11-21T03:34:09;4.07;;;1.80;;
77775;SDS011;73554;43.328;6.668;2023-11-21T03:36:39;6.07;;;1.80;;
77775;SDS011;73554;43.328;6.668;2023-11-21T03:39:05;11.02;;;2.00;;
77775;SDS011;73554;43.328;6.668;2023-11-21T03:41:30;7.93;;;2.40;;
77775;SDS011;73554;43.328;6.668;2023-11-21T03:43:55;3.88;;;1.80;;
77775;SDS011;73554;43.328;6.668;2023-11-21T03:46:21;4.07;;;2.15;;
77775;SDS011;73554;43.328;6.668;2023-11-21T03:48:46;5.18;;;2.17;;
77775;SDS011;73554;43.328;6.668;2023-11-21T03:51:11;4.28;;;2.30;;
77775;SDS011;73554;43.328;6.668;2023-11-21T03:53:37;7.28;;;2.10;;
77775;SDS011;73554;43.328;6.668;2023-11-21T03:56:02;4.32;;;1.60;;
77775;SDS011;73554;43.328;6.668;2023-11-21T03:58:29;5.65;;;1.67;;
77775;SDS011;73554;43.328;6.668;2023-11-21T04:00:54;3.75;;;1.70;;
77775;SDS011;73554;43.328;6.668;2023-11-21T04:03:19;4.60;;;1.80;;
77775;SDS011;73554;43.328;6.668;2023-11-21T04:05:45;5.38;;;1.88;;
77775;SDS011;73554;43.328;6.668;2023-11-21T04:08:11;4.43;;;1.52;;
77775;SDS011;73554;43.328;6.668;2023-11-21T04:10:36;6.43;;;1.63;;
77775;SDS011;73554;43.328;6.668;2023-11-21T04:13:01;5.20;;;1.60;;
77775;SDS011;73554;43.328;6.668;2023-11-21T04:15:27;5.13;;;1.80;;
77775;SDS011;73554;43.328;6.668;2023-11-21T04:17:52;4.47;;;1.58;;
77775;SDS011;73554;43.328;6.668;2023-11-21T04:20:18;4.03;;;2.00;;
77775;SDS011;73554;43.328;6.668;2023-11-21T04:22:43;4.70;;;1.75;;
77775;SDS011;73554;43.328;6.668;2023-11-21T04:25:10;6.88;;;2.10;;
77775;SDS011;73554;43.328;6.668;2023-11-21T04:27:36;6.28;;;2.38;;
77775;SDS011;73554;43.328;6.668;2023-11-21T04:30:02;4.65;;;1.80;;
77775;SDS011;73554;43.328;6.668;2023-11-21T04:32:28;4.65;;;1.63;;
77775;SDS011;73554;43.328;6.668;2023-11-21T04:34:54;5.53;;;1.60;;
77775;SDS011;73554;43.328;6.668;2023-11-21T04:37:19;6.97;;;1.98;;
77775;SDS011;73554;43.328;6.668;2023-11-21T04:39:44;6.05;;;1.90;;
77775;SDS011;73554;43.328;6.668;2023-11-21T04:42:10;5.35;;;1.90;;
77775;SDS011;73554;43.328;6.668;2023-11-21T04:44:35;5.03;;;1.58;;
77775;SDS011;73554;43.328;6.668;2023-11-21T04:47:01;4.07;;;1.52;;
77775;SDS011;73554;43.328;6.668;2023-11-21T04:49:29;10.38;;;1.67;;
77775;SDS011;73554;43.328;6.668;2023-11-21T04:51:55;5.47;;;1.67;;
77775;SDS011;73554;43.328;6.668;2023-11-21T04:54:20;5.18;;;2.00;;
77775;SDS011;73554;43.328;6.668;2023-11-21T04:56:46;5.55;;;1.90;;
77775;SDS011;73554;43.328;6.668;2023-11-21T04:59:11;4.70;;;1.90;;
77775;SDS011;73554;43.328;6.668;2023-11-21T05:01:37;6.25;;;1.83;;
77775;SDS011;73554;43.328;6.668;2023-11-21T05:04:04;4.70;;;1.45;;
77775;SDS011;73554;43.328;6.668;2023-11-21T05:06:31;6.72;;;1.50;;
77775;SDS011;73554;43.328;6.668;2023-11-21T05:08:56;6.35;;;1.88;;
77775;SDS011;73554;43.328;6.668;2023-11-21T05:11:25;5.53;;;1.95;;
77775;SDS011;73554;43.328;6.668;2023-11-21T05:13:51;5.20;;;1.52;;
77775;SDS011;73554;43.328;6.668;2023-11-21T05:16:17;6.68;;;2.00;;
77775;SDS011;73554;43.328;6.668;2023-11-21T05:18:42;4.18;;;2.08;;
77775;SDS011;73554;43.328;6.668;2023-11-21T05:21:07;5.85;;;1.65;;
77775;SDS011;73554;43.328;6.668;2023-11-21T05:23:33;5.28;;;2.17;;
77775;SDS011;73554;43.328;6.668;2023-11-21T05:25:59;4.38;;;1.63;;
77775;SDS011;73554;43.328;6.668;2023-11-21T05:28:24;5.45;;;1.73;;
77775;SDS011;73554;43.328;6.668;2023-11-21T05:30:50;4.82;;;1.70;;
77775;SDS011;73554;43.328;6.668;2023-11-21T05:33:16;5.18;;;1.83;;
77775;SDS011;73554;43.328;6.668;2023-11-21T05:35:41;4.85;;;1.75;;
77775;SDS011;73554;43.328;6.668;2023-11-21T05:38:06;4.15;;;1.70;;
77775;SDS011;73554;43.328;6.668;2023-11-21T05:40:32;4.75;;;2.08;;
77775;SDS011;73554;43.328;6.668;2023-11-21T05:42:57;7.38;;;1.50;;
77775;SDS011;73554;43.328;6.668;2023-11-21T05:45:23;5.45;;;1.90;;
77775;SDS011;73554;43.328;6.668;2023-11-21T05:47:48;4.63;;;1.75;;
77775;SDS011;73554;43.328;6.668;2023-11-21T05:50:14;5.43;;;1.80;;
77775;SDS011;73554;43.328;6.668;2023-11-21T05:52:41;5.55;;;1.77;;
77775;SDS011;73554;43.328;6.668;2023-11-21T05:55:08;3.80;;;1.77;;
77775;SDS011;73554;43.328;6.668;2023-11-21T05:57:37;6.32;;;2.00;;
77775;SDS011;73554;43.328;6.668;2023-11-21T06:02:36;5.90;;;2.17;;
77775;SDS011;73554;43.328;6.668;2023-11-21T06:05:05;4.32;;;1.40;;
77775;SDS011;73554;43.328;6.668;2023-11-21T06:07:33;5.28;;;1.50;;
77775;SDS011;73554;43.328;6.668;2023-11-21T06:10:00;6.30;;;1.52;;
77775;SDS011;73554;43.328;6.668;2023-11-21T06:12:28;6.88;;;1.95;;
77775;SDS011;73554;43.328;6.668;2023-11-21T06:14:54;4.05;;;1.30;;
77775;SDS011;73554;43.328;6.668;2023-11-21T06:19:46;5.40;;;1.50;;
77775;SDS011;73554;43.328;6.668;2023-11-21T06:22:11;4.63;;;1.20;;
77775;SDS011;73554;43.328;6.668;2023-11-21T06:24:36;4.93;;;1.30;;
77775;SDS011;73554;43.328;6.668;2023-11-21T06:27:05;5.05;;;1.27;;
77775;SDS011;73554;43.328;6.668;2023-11-21T06:29:31;5.63;;;1.30;;
77775;SDS011;73554;43.328;6.668;2023-11-21T06:31:57;3.65;;;1.35;;
77775;SDS011;73554;43.328;6.668;2023-11-21T06:34:23;3.70;;;1.38;;
77775;SDS011;73554;43.328;6.668;2023-11-21T06:36:48;4.80;;;1.20;;
77775;SDS011;73554;43.328;6.668;2023-11-21T06:39:14;6.78;;;2.17;;
77775;SDS011;73554;43.328;6.668;2023-11-21T06:41:41;3.72;;;1.27;;
77775;SDS011;73554;43.328;6.668;2023-11-21T06:44:08;7.53;;;1.60;;
77775;SDS011;73554;43.328;6.668;2023-11-21T06:46:33;7.28;;;1.48;;
77775;SDS011;73554;43.328;6.668;2023-11-21T06:48:59;4.30;;;1.58;;
77775;SDS011;73554;43.328;6.668;2023-11-21T06:51:24;5.40;;;1.38;;
77775;SDS011;73554;43.328;6.668;2023-11-21T06:53:50;3.47;;;1.83;;
77775;SDS011;73554;43.328;6.668;2023-11-21T06:56:18;5.35;;;2.03;;
77775;SDS011;73554;43.328;6.668;2023-11-21T06:58:45;3.38;;;1.10;;
77775;SDS011;73554;43.328;6.668;2023-11-21T07:01:14;5.38;;;1.50;;
77775;SDS011;73554;43.328;6.668;2023-11-21T07:03:40;3.72;;;1.38;;
77775;SDS011;73554;43.328;6.668;2023-11-21T07:08:32;4.05;;;1.45;;
77775;SDS011;73554;43.328;6.668;2023-11-21T07:10:58;6.28;;;1.40;;
77775;SDS011;73554;43.328;6.668;2023-11-21T07:13:23;2.95;;;1.00;;
77775;SDS011;73554;43.328;6.668;2023-11-21T07:15:49;6.35;;;1.35;;
77775;SDS011;73554;43.328;6.668;2023-11-21T07:18:14;3.70;;;1.27;;
77775;SDS011;73554;43.328;6.668;2023-11-21T07:20:39;5.68;;;1.50;;
77775;SDS011;73554;43.328;6.668;2023-11-21T07:23:05;3.83;;;1.35;;
77775;SDS011;73554;43.328;6.668;2023-11-21T07:25:31;3.97;;;1.25;;
77775;SDS011;73554;43.328;6.668;2023-11-21T07:27:59;4.50;;;1.30;;
77775;SDS011;73554;43.328;6.668;2023-11-21T07:30:25;2.92;;;1.33;;
77775;SDS011;73554;43.328;6.668;2023-11-21T07:32:51;4.35;;;1.20;;
77775;SDS011;73554;43.328;6.668;2023-11-21T07:35:16;3.20;;;1.10;;
77775;SDS011;73554;43.328;6.668;2023-11-21T07:37:42;4.65;;;1.50;;
77775;SDS011;73554;43.328;6.668;2023-11-21T07:40:08;3.78;;;1.40;;
77775;SDS011;73554;43.328;6.668;2023-11-21T07:42:34;2.45;;;0.93;;
77775;SDS011;73554;43.328;6.668;2023-11-21T07:44:59;2.65;;;1.02;;
77775;SDS011;73554;43.328;6.668;2023-11-21T07:47:25;2.80;;;0.90;;
77775;SDS011;73554;43.328;6.668;2023-11-21T07:49:52;3.50;;;1.02;;
77775;SDS011;73554;43.328;6.668;2023-11-21T07:52:18;4.50;;;1.30;;
77775;SDS011;73554;43.328;6.668;2023-11-21T07:54:46;3.50;;;1.23;;
77775;SDS011;73554;43.328;6.668;2023-11-21T07:57:11;3.78;;;1.15;;
77775;SDS011;73554;43.328;6.668;2023-11-21T07:59:38;2.30;;;1.02;;
77775;SDS011;73554;43.328;6.668;2023-11-21T08:02:05;3.05;;;1.10;;
77775;SDS011;73554;43.328;6.668;2023-11-21T08:04:31;2.83;;;0.90;;
77775;SDS011;73554;43.328;6.668;2023-11-21T08:06:57;3.38;;;1.10;;
77775;SDS011;73554;43.328;6.668;2023-11-21T08:09:22;2.63;;;0.98;;
77775;SDS011;73554;43.328;6.668;2023-11-21T08:11:48;3.53;;;1.10;;
77775;SDS011;73554;43.328;6.668;2023-11-21T08:14:14;4.93;;;1.38;;
77775;SDS011;73554;43.328;6.668;2023-11-21T08:16:40;3.33;;;1.13;;
77775;SDS011;73554;43.328;6.668;2023-11-21T08:19:05;3.08;;;1.10;;
77775;SDS011;73554;43.328;6.668;2023-11-21T08:21:31;4.05;;;0.80;;
77775;SDS011;73554;43.328;6.668;2023-11-21T08:23:56;2.53;;;0.98;;
77775;SDS011;73554;43.328;6.668;2023-11-21T08:26:22;2.85;;;0.90;;
77775;SDS011;73554;43.328;6.668;2023-11-21T08:28:48;3.45;;;0.90;;
77775;SDS011;73554;43.328;6.668;2023-11-21T08:31:14;3.15;;;1.10;;
77775;SDS011;73554;43.328;6.668;2023-11-21T08:33:39;2.58;;;1.00;;
77775;SDS011;73554;43.328;6.668;2023-11-21T08:36:08;3.72;;;0.95;;
77775;SDS011;73554;43.328;6.668;2023-11-21T08:38:35;2.20;;;0.82;;
77775;SDS011;73554;43.328;6.668;2023-11-21T08:41:04;3.65;;;1.08;;
77775;SDS011;73554;43.328;6.668;2023-11-21T08:43:35;3.85;;;1.23;;
77775;SDS011;73554;43.328;6.668;2023-11-21T08:46:04;3.03;;;1.05;;
77775;SDS011;73554;43.328;6.668;2023-11-21T08:48:30;2.78;;;1.10;;
77775;SDS011;73554;43.328;6.668;2023-11-21T08:50:56;3.45;;;1.15;;
77775;SDS011;73554;43.328;6.668;2023-11-21T08:53:21;3.20;;;1.10;;
77775;SDS011;73554;43.328;6.668;2023-11-21T08:55:47;3.15;;;1.10;;
77775;SDS011;73554;43.328;6.668;2023-11-21T08:58:13;3.25;;;1.00;;
77775;SDS011;73554;43.328;6.668;2023-11-21T09:00:39;4.65;;;1.30;;
77775;SDS011;73554;43.328;6.668;2023-11-21T09:03:05;3.70;;;1.30;;
77775;SDS011;73554;43.328;6.668;2023-11-21T09:05:33;6.50;;;1.70;;
77775;SDS011;73554;43.328;6.668;2023-11-21T09:07:59;3.53;;;1.60;;
77775;SDS011;73554;43.328;6.668;2023-11-21T09:10:25;4.82;;;1.75;;
77775;SDS011;73554;43.328;6.668;2023-11-21T09:12:50;5.07;;;1.50;;
77775;SDS011;73554;43.328;6.668;2023-11-21T09:15:17;2.88;;;1.10;;
77775;SDS011;73554;43.328;6.668;2023-11-21T09:17:42;4.63;;;1.25;;
77775;SDS011;73554;43.328;6.668;2023-11-21T09:20:09;5.40;;;1.20;;
77775;SDS011;73554;43.328;6.668;2023-11-21T09:22:35;3.17;;;1.20;;
77775;SDS011;73554;43.328;6.668;2023-11-21T09:25:01;3.40;;;1.33;;
77775;SDS011;73554;43.328;6.668;2023-11-21T09:27:30;4.18;;;1.10;;
77775;SDS011;73554;43.328;6.668;2023-11-21T09:29:56;4.82;;;1.17;;
77775;SDS011;73554;43.328;6.668;2023-11-21T09:32:23;3.47;;;1.30;;
77775;SDS011;73554;43.328;6.668;2023-11-21T09:37:15;4.35;;;1.42;;
77775;SDS011;73554;43.328;6.668;2023-11-21T09:39:41;5.82;;;1.25;;
77775;SDS011;73554;43.328;6.668;2023-11-21T09:42:11;4.00;;;1.40;;
77775;SDS011;73554;43.328;6.668;2023-11-21T09:47:10;3.20;;;1.38;;
77775;SDS011;73554;43.328;6.668;2023-11-21T09:49:42;5.07;;;1.70;;
77775;SDS011;73554;43.328;6.668;2023-11-21T09:52:12;5.15;;;1.70;;
77775;SDS011;73554;43.328;6.668;2023-11-21T09:54:48;3.67;;;1.70;;
77775;SDS011;73554;43.328;6.668;2023-11-21T09:57:15;4.93;;;1.70;;
77775;SDS011;73554;43.328;6.668;2023-11-21T09:59:41;5.82;;;1.77;;
77775;SDS011;73554;43.328;6.668;2023-11-21T10:02:08;4.18;;;1.40;;
77775;SDS011;73554;43.328;6.668;2023-11-21T10:04:37;11.00;;;3.20;;
77775;SDS011;73554;43.328;6.668;2023-11-21T10:07:03;3.25;;;1.40;;
77775;SDS011;73554;43.328;6.668;2023-11-21T10:09:34;4.60;;;1.92;;
77775;SDS011;73554;43.328;6.668;2023-11-21T10:12:02;3.47;;;1.23;;
77775;SDS011;73554;43.328;6.668;2023-11-21T10:14:33;4.30;;;1.30;;
77775;SDS011;73554;43.328;6.668;2023-11-21T10:17:02;2.65;;;1.10;;
77775;SDS011;73554;43.328;6.668;2023-11-21T10:19:28;4.25;;;1.50;;
77775;SDS011;73554;43.328;6.668;2023-11-21T10:21:54;4.47;;;1.83;;
77775;SDS011;73554;43.328;6.668;2023-11-21T10:24:22;4.25;;;1.50;;
77775;SDS011;73554;43.328;6.668;2023-11-21T10:26:48;3.38;;;1.40;;
77775;SDS011;73554;43.328;6.668;2023-11-21T10:29:13;4.53;;;1.67;;
77775;SDS011;73554;43.328;6.668;2023-11-21T10:31:41;4.13;;;1.40;;
77775;SDS011;73554;43.328;6.668;2023-11-21T10:34:17;5.70;;;1.88;;
77775;SDS011;73554;43.328;6.668;2023-11-21T10:36:44;4.18;;;1.65;;
77775;SDS011;73554;43.328;6.668;2023-11-21T10:39:17;4.30;;;1.35;;
77775;SDS011;73554;43.328;6.668;2023-11-21T10:41:47;4.07;;;1.35;;
77775;SDS011;73554;43.328;6.668;2023-11-21T10:44:14;5.03;;;1.38;;
77775;SDS011;73554;43.328;6.668;2023-11-21T10:46:46;4.25;;;1.38;;
77775;SDS011;73554;43.328;6.668;2023-11-21T10:49:16;5.50;;;1.33;;
77775;SDS011;73554;43.328;6.668;2023-11-21T10:51:45;4.82;;;1.55;;
77775;SDS011;73554;43.328;6.668;2023-11-21T10:54:16;5.13;;;1.48;;
77775;SDS011;73554;43.328;6.668;2023-11-21T10:56:42;5.00;;;1.80;;
77775;SDS011;73554;43.328;6.668;2023-11-21T10:59:10;4.65;;;2.08;;
77775;SDS011;73554;43.328;6.668;2023-11-21T11:01:41;6.22;;;1.90;;
77775;SDS011;73554;43.328;6.668;2023-11-21T11:04:08;6.47;;;1.88;;
77775;SDS011;73554;43.328;6.668;2023-11-21T11:06:42;5.72;;;1.90;;
77775;SDS011;73554;43.328;6.668;2023-11-21T11:09:09;4.07;;;1.60;;
77775;SDS011;73554;43.328;6.668;2023-11-21T11:11:39;5.55;;;1.98;;
77775;SDS011;73554;43.328;6.668;2023-11-21T11:14:12;5.28;;;1.75;;
77775;SDS011;73554;43.328;6.668;2023-11-21T11:16:39;6.22;;;1.80;;
77775;SDS011;73554;43.328;6.668;2023-11-21T11:19:08;6.32;;;2.78;;
77775;SDS011;73554;43.328;6.668;2023-11-21T11:26:51;4.97;;;2.00;;
77775;SDS011;73554;43.328;6.668;2023-11-21T11:34:34;6.30;;;2.70;;
77775;SDS011;73554;43.328;6.668;2023-11-21T11:37:06;8.10;;;2.83;;
77775;SDS011;73554;43.328;6.668;2023-11-21T11:39:36;5.15;;;2.20;;
77775;SDS011;73554;43.328;6.668;2023-11-21T11:42:11;5.82;;;2.10;;
77775;SDS011;73554;43.328;6.668;2023-11-21T11:47:24;5.32;;;2.03;;
77775;SDS011;73554;43.328;6.668;2023-11-21T11:50:00;4.78;;;2.50;;
77775;SDS011;73554;43.328;6.668;2023-11-21T11:55:18;5.15;;;2.17;;
77775;SDS011;73554;43.328;6.668;2023-11-21T11:57:47;4.18;;;1.65;;
77775;SDS011;73554;43.328;6.668;2023-11-21T12:02:53;4.85;;;1.73;;
77775;SDS011;73554;43.328;6.668;2023-11-21T12:05:20;4.13;;;1.63;;
77775;SDS011;73554;43.328;6.668;2023-11-21T12:07:48;4.22;;;1.33;;
77775;SDS011;73554;43.328;6.668;2023-11-21T12:10:17;5.15;;;1.50;;
77775;SDS011;73554;43.328;6.668;2023-11-21T12:12:44;5.05;;;1.58;;
77775;SDS011;73554;43.328;6.668;2023-11-21T12:15:11;4.75;;;1.60;;
77775;SDS011;73554;43.328;6.668;2023-11-21T12:17:38;3.80;;;1.20;;
77775;SDS011;73554;43.328;6.668;2023-11-21T12:20:04;3.80;;;1.67;;
77775;SDS011;73554;43.328;6.668;2023-11-21T12:22:31;3.58;;;1.20;;
77775;SDS011;73554;43.328;6.668;2023-11-21T12:25:05;4.35;;;1.45;;
77775;SDS011;73554;43.328;6.668;2023-11-21T12:27:32;5.35;;;1.80;;
77775;SDS011;73554;43.328;6.668;2023-11-21T12:30:05;3.90;;;1.50;;
77775;SDS011;73554;43.328;6.668;2023-11-21T12:32:31;3.72;;;1.30;;
77775;SDS011;73554;43.328;6.668;2023-11-21T12:34:57;3.50;;;1.10;;
77775;SDS011;73554;43.328;6.668;2023-11-21T12:37:22;2.90;;;1.13;;
77775;SDS011;73554;43.328;6.668;2023-11-21T12:39:48;3.35;;;1.17;;
77775;SDS011;73554;43.328;6.668;2023-11-21T12:42:14;2.28;;;0.85;;
77775;SDS011;73554;43.328;6.668;2023-11-21T12:44:40;2.17;;;0.90;;
77775;SDS011;73554;43.328;6.668;2023-11-21T12:47:05;2.47;;;1.00;;
77775;SDS011;73554;43.328;6.668;2023-11-21T12:49:31;2.45;;;0.90;;
77775;SDS011;73554;43.328;6.668;2023-11-21T12:52:03;2.22;;;0.80;;
77775;SDS011;73554;43.328;6.668;2023-11-21T12:54:29;2.55;;;0.80;;
77775;SDS011;73554;43.328;6.668;2023-11-21T12:56:54;4.13;;;1.10;;
77775;SDS011;73554;43.328;6.668;2023-11-21T12:59:24;2.55;;;1.00;;
77775;SDS011;73554;43.328;6.668;2023-11-21T13:01:50;4.70;;;1.13;;
77775;SDS011;73554;43.328;6.668;2023-11-21T13:04:16;3.00;;;0.90;;
77775;SDS011;73554;43.328;6.668;2023-11-21T13:06:43;3.13;;;0.90;;
77775;SDS011;73554;43.328;6.668;2023-11-21T13:09:09;2.85;;;0.90;;
77775;SDS011;73554;43.328;6.668;2023-11-21T13:11:41;1.80;;;0.60;;
77775;SDS011;73554;43.328;6.668;2023-11-21T13:14:06;2.45;;;1.00;;
77775;SDS011;73554;43.328;6.668;2023-11-21T13:16:32;2.92;;;0.90;;
77775;SDS011;73554;43.328;6.668;2023-11-21T13:18:58;2.38;;;0.85;;
77775;SDS011;73554;43.328;6.668;2023-11-21T13:21:23;2.78;;;0.80;;
77775;SDS011;73554;43.328;6.668;2023-11-21T13:23:49;2.13;;;0.75;;
77775;SDS011;73554;43.328;6.668;2023-11-21T13:26:17;1.80;;;0.80;;
77775;SDS011;73554;43.328;6.668;2023-11-21T13:28:45;2.47;;;0.88;;
77775;SDS011;73554;43.328;6.668;2023-11-21T13:31:12;3.33;;;0.90;;
77775;SDS011;73554;43.328;6.668;2023-11-21T13:33:51;1.60;;;0.50;;
77775;SDS011;73554;43.328;6.668;2023-11-21T13:36:21;2.08;;;0.70;;
77775;SDS011;73554;43.328;6.668;2023-11-21T13:38:51;1.70;;;0.60;;
77775;SDS011;73554;43.328;6.668;2023-11-21T13:41:19;2.28;;;0.50;;
77775;SDS011;73554;43.328;6.668;2023-11-21T13:43:47;1.80;;;0.43;;
77775;SDS011;73554;43.328;6.668;2023-11-21T13:46:22;2.28;;;0.80;;
77775;SDS011;73554;43.328;6.668;2023-11-21T13:51:20;1.35;;;0.68;;
77775;SDS011;73554;43.328;6.668;2023-11-21T13:53:54;1.40;;;0.60;;
77775;SDS011;73554;43.328;6.668;2023-11-21T13:56:20;2.75;;;0.93;;
77775;SDS011;73554;43.328;6.668;2023-11-21T13:58:49;7.90;;;0.70;;
77775;SDS011;73554;43.328;6.668;2023-11-21T14:01:21;2.28;;;0.70;;
77775;SDS011;73554;43.328;6.668;2023-11-21T14:04:00;0.85;;;0.50;;
77775;SDS011;73554;43.328;6.668;2023-11-21T14:06:49;2.40;;;0.60;;
77775;SDS011;73554;43.328;6.668;2023-11-21T14:09:17;1.45;;;0.60;;
77775;SDS011;73554;43.328;6.668;2023-11-21T14:11:54;1.38;;;0.50;;
77775;SDS011;73554;43.328;6.668;2023-11-21T14:14:22;2.38;;;0.63;;
77775;SDS011;73554;43.328;6.668;2023-11-21T14:16:55;3.92;;;1.20;;
77775;SDS011;73554;43.328;6.668;2023-11-21T14:19:22;2.08;;;0.73;;
77775;SDS011;73554;43.328;6.668;2023-11-21T14:21:52;1.70;;;0.65;;
77775;SDS011;73554;43.328;6.668;2023-11-21T14:24:18;2.60;;;1.05;;
77775;SDS011;73554;43.328;6.668;2023-11-21T14:26:45;1.83;;;0.68;;
77775;SDS011;73554;43.328;6.668;2023-11-21T14:29:12;1.38;;;0.40;;
77775;SDS011;73554;43.328;6.668;2023-11-21T14:31:44;3.75;;;1.10;;
77775;SDS011;73554;43.328;6.668;2023-11-21T14:34:10;3.58;;;1.17;;
77775;SDS011;73554;43.328;6.668;2023-11-21T14:36:37;3.25;;;1.23;;
77775;SDS011;73554;43.328;6.668;2023-11-21T14:39:04;2.35;;;0.73;;
77775;SDS011;73554;43.328;6.668;2023-11-21T14:41:36;4.20;;;1.10;;
